sensor_id;sensor_type;location;lat;lon;timestamp;P1;durP1;ratioP1;P2;durP2;ratioP2
16228;SDS011;8222;51.462;12.630;2022-11-15T00:00:11;21.73;;;17.25;;
16228;SDS011;8222;51.462;12.630;2022-11-15T00:02:37;20.98;;;16.55;;
16228;SDS011;8222;51.462;12.630;2022-11-15T00:05:02;22.73;;;17.07;;
16228;SDS011;8222;51.462;12.630;2022-11-15T00:07:30;21.08;;;16.88;;
16228;SDS011;8222;51.462;12.630;2022-11-15T00:09:56;20.55;;;15.40;;
16228;SDS011;8222;51.462;12.630;2022-11-15T00:12:22;22.27;;;17.30;;
16228;SDS011;8222;51.462;12.630;2022-11-15T00:14:47;22.93;;;16.87;;
16228;SDS011;8222;51.462;12.630;2022-11-15T00:17:15;22.17;;;17.13;;
16228;SDS011;8222;51.462;12.630;2022-11-15T00:19:40;19.27;;;16.10;;
16228;SDS011;8222;51.462;12.630;2022-11-15T00:22:06;19.73;;;17.08;;
16228;SDS011;8222;51.462;12.630;2022-11-15T00:24:32;19.80;;;16.83;;
16228;SDS011;8222;51.462;12.630;2022-11-15T00:26:57;20.30;;;16.50;;
16228;SDS011;8222;51.462;12.630;2022-11-15T00:29:23;20.15;;;16.48;;
16228;SDS011;8222;51.462;12.630;2022-11-15T00:31:50;20.17;;;16.50;;
16228;SDS011;8222;51.462;12.630;2022-11-15T00:34:17;20.95;;;16.83;;
16228;SDS011;8222;51.462;12.630;2022-11-15T00:36:42;20.13;;;15.60;;
16228;SDS011;8222;51.462;12.630;2022-11-15T00:39:08;18.92;;;16.50;;
16228;SDS011;8222;51.462;12.630;2022-11-15T00:41:34;19.00;;;15.50;;
16228;SDS011;8222;51.462;12.630;2022-11-15T00:43:59;19.13;;;15.30;;
16228;SDS011;8222;51.462;12.630;2022-11-15T00:46:25;19.15;;;15.57;;
16228;SDS011;8222;51.462;12.630;2022-11-15T00:48:51;18.47;;;15.07;;
16228;SDS011;8222;51.462;12.630;2022-11-15T00:51:16;20.10;;;16.20;;
16228;SDS011;8222;51.462;12.630;2022-11-15T00:53:42;21.00;;;15.68;;
16228;SDS011;8222;51.462;12.630;2022-11-15T00:56:07;20.07;;;15.70;;
16228;SDS011;8222;51.462;12.630;2022-11-15T00:58:33;17.98;;;15.35;;
16228;SDS011;8222;51.462;12.630;2022-11-15T01:01:05;19.42;;;15.25;;
16228;SDS011;8222;51.462;12.630;2022-11-15T01:03:51;19.85;;;16.42;;
16228;SDS011;8222;51.462;12.630;2022-11-15T01:06:17;19.53;;;15.53;;
16228;SDS011;8222;51.462;12.630;2022-11-15T01:08:44;19.15;;;14.70;;
16228;SDS011;8222;51.462;12.630;2022-11-15T01:11:11;18.92;;;15.20;;
16228;SDS011;8222;51.462;12.630;2022-11-15T01:13:38;18.95;;;14.48;;
16228;SDS011;8222;51.462;12.630;2022-11-15T01:18:33;17.73;;;14.10;;
16228;SDS011;8222;51.462;12.630;2022-11-15T01:21:05;17.05;;;14.32;;
16228;SDS011;8222;51.462;12.630;2022-11-15T01:23:32;16.90;;;14.55;;
16228;SDS011;8222;51.462;12.630;2022-11-15T01:25:58;17.33;;;14.03;;
16228;SDS011;8222;51.462;12.630;2022-11-15T01:28:25;16.40;;;13.20;;
16228;SDS011;8222;51.462;12.630;2022-11-15T01:30:50;17.43;;;14.13;;
16228;SDS011;8222;51.462;12.630;2022-11-15T01:33:18;15.55;;;13.63;;
16228;SDS011;8222;51.462;12.630;2022-11-15T01:35:44;18.10;;;13.53;;
16228;SDS011;8222;51.462;12.630;2022-11-15T01:38:09;17.23;;;13.98;;
16228;SDS011;8222;51.462;12.630;2022-11-15T01:40:35;15.17;;;12.70;;
16228;SDS011;8222;51.462;12.630;2022-11-15T01:45:47;16.17;;;13.57;;
16228;SDS011;8222;51.462;12.630;2022-11-15T01:48:25;17.08;;;13.20;;
16228;SDS011;8222;51.462;12.630;2022-11-15T01:51:03;16.42;;;12.82;;
16228;SDS011;8222;51.462;12.630;2022-11-15T01:53:31;16.83;;;13.82;;
16228;SDS011;8222;51.462;12.630;2022-11-15T01:56:02;15.80;;;12.80;;
16228;SDS011;8222;51.462;12.630;2022-11-15T01:58:30;16.98;;;12.65;;
16228;SDS011;8222;51.462;12.630;2022-11-15T02:00:57;15.43;;;11.90;;
16228;SDS011;8222;51.462;12.630;2022-11-15T02:03:23;14.20;;;12.43;;
16228;SDS011;8222;51.462;12.630;2022-11-15T02:06:06;14.18;;;11.27;;
16228;SDS011;8222;51.462;12.630;2022-11-15T02:08:34;14.27;;;11.52;;
16228;SDS011;8222;51.462;12.630;2022-11-15T02:11:00;13.37;;;11.47;;
16228;SDS011;8222;51.462;12.630;2022-11-15T02:13:25;12.97;;;11.30;;
16228;SDS011;8222;51.462;12.630;2022-11-15T02:18:56;15.60;;;11.45;;
16228;SDS011;8222;51.462;12.630;2022-11-15T02:30:37;13.43;;;10.52;;
16228;SDS011;8222;51.462;12.630;2022-11-15T02:35:59;11.63;;;9.93;;
16228;SDS011;8222;51.462;12.630;2022-11-15T02:38:47;10.95;;;9.75;;
16228;SDS011;8222;51.462;12.630;2022-11-15T02:41:46;11.38;;;9.23;;
16228;SDS011;8222;51.462;12.630;2022-11-15T02:46:56;9.90;;;8.87;;
16228;SDS011;8222;51.462;12.630;2022-11-15T02:49:41;9.48;;;8.48;;
16228;SDS011;8222;51.462;12.630;2022-11-15T02:52:19;10.15;;;9.02;;
16228;SDS011;8222;51.462;12.630;2022-11-15T02:54:52;11.20;;;8.70;;
16228;SDS011;8222;51.462;12.630;2022-11-15T03:00:17;9.20;;;8.18;;
16228;SDS011;8222;51.462;12.630;2022-11-15T03:08:31;10.07;;;8.35;;
16228;SDS011;8222;51.462;12.630;2022-11-15T03:11:11;10.35;;;8.75;;
16228;SDS011;8222;51.462;12.630;2022-11-15T03:13:59;9.48;;;8.38;;
16228;SDS011;8222;51.462;12.630;2022-11-15T03:19:38;9.85;;;8.82;;
16228;SDS011;8222;51.462;12.630;2022-11-15T03:22:17;10.67;;;9.20;;
16228;SDS011;8222;51.462;12.630;2022-11-15T03:24:46;10.75;;;8.82;;
16228;SDS011;8222;51.462;12.630;2022-11-15T03:27:17;10.98;;;8.43;;
16228;SDS011;8222;51.462;12.630;2022-11-15T03:29:49;10.65;;;8.27;;
16228;SDS011;8222;51.462;12.630;2022-11-15T03:32:22;11.18;;;8.43;;
16228;SDS011;8222;51.462;12.630;2022-11-15T03:34:58;10.27;;;8.03;;
16228;SDS011;8222;51.462;12.630;2022-11-15T03:40:01;11.10;;;8.10;;
16228;SDS011;8222;51.462;12.630;2022-11-15T03:42:40;10.23;;;8.45;;
16228;SDS011;8222;51.462;12.630;2022-11-15T03:45:23;8.90;;;7.90;;
16228;SDS011;8222;51.462;12.630;2022-11-15T03:48:05;10.25;;;8.30;;
16228;SDS011;8222;51.462;12.630;2022-11-15T03:50:38;8.80;;;7.80;;
16228;SDS011;8222;51.462;12.630;2022-11-15T03:53:04;8.97;;;6.50;;
16228;SDS011;8222;51.462;12.630;2022-11-15T03:55:31;8.52;;;7.22;;
16228;SDS011;8222;51.462;12.630;2022-11-15T03:57:59;10.40;;;8.30;;
16228;SDS011;8222;51.462;12.630;2022-11-15T04:00:27;9.57;;;8.40;;
16228;SDS011;8222;51.462;12.630;2022-11-15T04:02:54;10.82;;;8.52;;
16228;SDS011;8222;51.462;12.630;2022-11-15T04:05:19;11.32;;;9.13;;
16228;SDS011;8222;51.462;12.630;2022-11-15T04:07:47;9.43;;;8.15;;
16228;SDS011;8222;51.462;12.630;2022-11-15T04:10:13;10.30;;;8.77;;
16228;SDS011;8222;51.462;12.630;2022-11-15T04:12:40;10.27;;;8.77;;
16228;SDS011;8222;51.462;12.630;2022-11-15T04:15:09;10.73;;;8.25;;
16228;SDS011;8222;51.462;12.630;2022-11-15T04:17:41;9.85;;;8.25;;
16228;SDS011;8222;51.462;12.630;2022-11-15T04:20:10;11.05;;;9.25;;
16228;SDS011;8222;51.462;12.630;2022-11-15T04:22:55;12.38;;;9.07;;
16228;SDS011;8222;51.462;12.630;2022-11-15T04:25:41;10.93;;;9.80;;
16228;SDS011;8222;51.462;12.630;2022-11-15T04:28:07;11.25;;;8.80;;
16228;SDS011;8222;51.462;12.630;2022-11-15T04:30:33;11.17;;;9.80;;
16228;SDS011;8222;51.462;12.630;2022-11-15T04:33:00;10.63;;;9.20;;
16228;SDS011;8222;51.462;12.630;2022-11-15T04:35:26;12.43;;;10.18;;
16228;SDS011;8222;51.462;12.630;2022-11-15T04:37:52;12.18;;;10.18;;
16228;SDS011;8222;51.462;12.630;2022-11-15T04:40:18;12.10;;;9.57;;
16228;SDS011;8222;51.462;12.630;2022-11-15T04:42:44;11.75;;;9.57;;
16228;SDS011;8222;51.462;12.630;2022-11-15T04:45:10;10.50;;;9.07;;
16228;SDS011;8222;51.462;12.630;2022-11-15T04:47:37;11.20;;;8.60;;
16228;SDS011;8222;51.462;12.630;2022-11-15T04:50:03;11.53;;;9.00;;
16228;SDS011;8222;51.462;12.630;2022-11-15T04:52:29;11.63;;;9.57;;
16228;SDS011;8222;51.462;12.630;2022-11-15T04:54:55;10.23;;;9.13;;
16228;SDS011;8222;51.462;12.630;2022-11-15T04:57:20;11.68;;;8.98;;
16228;SDS011;8222;51.462;12.630;2022-11-15T04:59:46;10.63;;;9.53;;
16228;SDS011;8222;51.462;12.630;2022-11-15T05:02:12;20.50;;;18.40;;
16228;SDS011;8222;51.462;12.630;2022-11-15T05:04:37;11.80;;;10.13;;
16228;SDS011;8222;51.462;12.630;2022-11-15T05:07:05;10.65;;;9.55;;
16228;SDS011;8222;51.462;12.630;2022-11-15T05:09:30;10.07;;;7.68;;
16228;SDS011;8222;51.462;12.630;2022-11-15T05:11:56;11.17;;;9.13;;
16228;SDS011;8222;51.462;12.630;2022-11-15T05:14:22;9.57;;;8.57;;
16228;SDS011;8222;51.462;12.630;2022-11-15T05:16:49;9.80;;;8.07;;
16228;SDS011;8222;51.462;12.630;2022-11-15T05:19:15;10.00;;;8.47;;
16228;SDS011;8222;51.462;12.630;2022-11-15T05:21:41;10.68;;;8.35;;
16228;SDS011;8222;51.462;12.630;2022-11-15T05:24:06;10.15;;;8.32;;
16228;SDS011;8222;51.462;12.630;2022-11-15T05:26:34;10.17;;;7.60;;
16228;SDS011;8222;51.462;12.630;2022-11-15T05:29:00;9.13;;;7.93;;
16228;SDS011;8222;51.462;12.630;2022-11-15T05:31:26;9.95;;;8.68;;
16228;SDS011;8222;51.462;12.630;2022-11-15T05:33:52;10.88;;;8.13;;
16228;SDS011;8222;51.462;12.630;2022-11-15T05:36:36;9.52;;;7.95;;
16228;SDS011;8222;51.462;12.630;2022-11-15T05:39:04;19.50;;;17.37;;
16228;SDS011;8222;51.462;12.630;2022-11-15T05:41:36;8.55;;;7.05;;
16228;SDS011;8222;51.462;12.630;2022-11-15T05:44:05;8.65;;;7.70;;
16228;SDS011;8222;51.462;12.630;2022-11-15T05:46:33;9.70;;;7.83;;
16228;SDS011;8222;51.462;12.630;2022-11-15T05:49:00;9.60;;;8.10;;
16228;SDS011;8222;51.462;12.630;2022-11-15T05:51:26;9.88;;;8.07;;
16228;SDS011;8222;51.462;12.630;2022-11-15T05:53:54;8.73;;;7.35;;
16228;SDS011;8222;51.462;12.630;2022-11-15T05:56:24;9.55;;;7.70;;
16228;SDS011;8222;51.462;12.630;2022-11-15T05:58:51;9.88;;;7.78;;
16228;SDS011;8222;51.462;12.630;2022-11-15T06:01:21;8.65;;;7.75;;
16228;SDS011;8222;51.462;12.630;2022-11-15T06:03:48;6.70;;;6.00;;
16228;SDS011;8222;51.462;12.630;2022-11-15T06:06:13;9.02;;;7.07;;
16228;SDS011;8222;51.462;12.630;2022-11-15T06:08:39;7.97;;;6.77;;
16228;SDS011;8222;51.462;12.630;2022-11-15T06:11:05;9.50;;;6.93;;
16228;SDS011;8222;51.462;12.630;2022-11-15T06:13:31;8.13;;;7.00;;
16228;SDS011;8222;51.462;12.630;2022-11-15T06:15:59;7.85;;;6.97;;
16228;SDS011;8222;51.462;12.630;2022-11-15T06:18:25;8.25;;;6.78;;
16228;SDS011;8222;51.462;12.630;2022-11-15T06:20:51;8.07;;;7.27;;
16228;SDS011;8222;51.462;12.630;2022-11-15T06:23:17;8.00;;;6.90;;
16228;SDS011;8222;51.462;12.630;2022-11-15T06:25:44;7.73;;;6.80;;
16228;SDS011;8222;51.462;12.630;2022-11-15T06:28:10;7.43;;;6.60;;
16228;SDS011;8222;51.462;12.630;2022-11-15T06:30:35;7.88;;;7.05;;
16228;SDS011;8222;51.462;12.630;2022-11-15T06:33:02;7.45;;;6.70;;
16228;SDS011;8222;51.462;12.630;2022-11-15T06:35:30;7.75;;;6.95;;
16228;SDS011;8222;51.462;12.630;2022-11-15T06:38:05;8.70;;;7.63;;
16228;SDS011;8222;51.462;12.630;2022-11-15T06:40:35;7.15;;;6.43;;
16228;SDS011;8222;51.462;12.630;2022-11-15T06:43:02;6.95;;;6.22;;
16228;SDS011;8222;51.462;12.630;2022-11-15T06:45:30;7.38;;;6.65;;
16228;SDS011;8222;51.462;12.630;2022-11-15T06:47:57;6.30;;;5.47;;
16228;SDS011;8222;51.462;12.630;2022-11-15T06:50:22;8.55;;;6.30;;
16228;SDS011;8222;51.462;12.630;2022-11-15T06:52:49;6.53;;;5.82;;
16228;SDS011;8222;51.462;12.630;2022-11-15T06:55:14;7.33;;;6.20;;
16228;SDS011;8222;51.462;12.630;2022-11-15T06:57:49;7.53;;;5.60;;
16228;SDS011;8222;51.462;12.630;2022-11-15T07:00:16;9.23;;;6.60;;
16228;SDS011;8222;51.462;12.630;2022-11-15T07:02:43;7.40;;;6.65;;
16228;SDS011;8222;51.462;12.630;2022-11-15T07:05:11;7.45;;;6.75;;
16228;SDS011;8222;51.462;12.630;2022-11-15T07:07:37;6.95;;;6.28;;
16228;SDS011;8222;51.462;12.630;2022-11-15T07:10:03;6.90;;;5.90;;
16228;SDS011;8222;51.462;12.630;2022-11-15T07:12:32;6.45;;;5.75;;
16228;SDS011;8222;51.462;12.630;2022-11-15T07:14:57;6.28;;;5.68;;
16228;SDS011;8222;51.462;12.630;2022-11-15T07:17:23;7.17;;;5.80;;
16228;SDS011;8222;51.462;12.630;2022-11-15T07:19:49;7.45;;;5.97;;
16228;SDS011;8222;51.462;12.630;2022-11-15T07:22:16;8.40;;;6.40;;
16228;SDS011;8222;51.462;12.630;2022-11-15T07:24:42;5.97;;;5.37;;
16228;SDS011;8222;51.462;12.630;2022-11-15T07:27:07;6.88;;;6.13;;
16228;SDS011;8222;51.462;12.630;2022-11-15T07:29:33;6.00;;;5.40;;
16228;SDS011;8222;51.462;12.630;2022-11-15T07:31:59;7.50;;;5.95;;
16228;SDS011;8222;51.462;12.630;2022-11-15T07:34:24;6.97;;;5.20;;
16228;SDS011;8222;51.462;12.630;2022-11-15T07:36:50;6.32;;;5.68;;
16228;SDS011;8222;51.462;12.630;2022-11-15T07:39:18;8.63;;;6.13;;
16228;SDS011;8222;51.462;12.630;2022-11-15T07:41:43;5.45;;;4.95;;
16228;SDS011;8222;51.462;12.630;2022-11-15T07:44:09;6.83;;;6.17;;
16228;SDS011;8222;51.462;12.630;2022-11-15T07:46:37;7.57;;;5.50;;
16228;SDS011;8222;51.462;12.630;2022-11-15T07:49:02;6.07;;;5.47;;
16228;SDS011;8222;51.462;12.630;2022-11-15T07:51:28;6.65;;;5.95;;
16228;SDS011;8222;51.462;12.630;2022-11-15T07:53:54;5.68;;;4.90;;
16228;SDS011;8222;51.462;12.630;2022-11-15T07:56:19;7.13;;;5.23;;
16228;SDS011;8222;51.462;12.630;2022-11-15T07:58:45;6.07;;;5.43;;
16228;SDS011;8222;51.462;12.630;2022-11-15T08:01:15;6.80;;;6.13;;
16228;SDS011;8222;51.462;12.630;2022-11-15T08:03:40;5.72;;;4.68;;
16228;SDS011;8222;51.462;12.630;2022-11-15T08:06:06;6.55;;;5.82;;
16228;SDS011;8222;51.462;12.630;2022-11-15T08:08:32;6.67;;;6.07;;
16228;SDS011;8222;51.462;12.630;2022-11-15T08:10:58;8.10;;;7.30;;
16228;SDS011;8222;51.462;12.630;2022-11-15T08:13:26;8.73;;;7.93;;
16228;SDS011;8222;51.462;12.630;2022-11-15T08:15:51;7.28;;;6.57;;
16228;SDS011;8222;51.462;12.630;2022-11-15T08:18:21;7.35;;;5.50;;
16228;SDS011;8222;51.462;12.630;2022-11-15T08:20:47;6.93;;;5.90;;
16228;SDS011;8222;51.462;12.630;2022-11-15T08:23:13;6.63;;;6.03;;
16228;SDS011;8222;51.462;12.630;2022-11-15T08:25:39;5.93;;;5.43;;
16228;SDS011;8222;51.462;12.630;2022-11-15T08:28:06;5.75;;;5.15;;
16228;SDS011;8222;51.462;12.630;2022-11-15T08:30:36;5.88;;;5.28;;
16228;SDS011;8222;51.462;12.630;2022-11-15T08:33:09;6.90;;;6.30;;
16228;SDS011;8222;51.462;12.630;2022-11-15T08:35:36;6.60;;;5.68;;
16228;SDS011;8222;51.462;12.630;2022-11-15T08:38:01;6.45;;;5.85;;
16228;SDS011;8222;51.462;12.630;2022-11-15T08:40:27;5.47;;;4.97;;
16228;SDS011;8222;51.462;12.630;2022-11-15T08:42:53;5.53;;;5.03;;
16228;SDS011;8222;51.462;12.630;2022-11-15T08:45:19;5.80;;;4.95;;
16228;SDS011;8222;51.462;12.630;2022-11-15T08:47:44;6.83;;;5.17;;
16228;SDS011;8222;51.462;12.630;2022-11-15T08:50:12;4.80;;;4.30;;
16228;SDS011;8222;51.462;12.630;2022-11-15T08:52:37;4.97;;;4.57;;
16228;SDS011;8222;51.462;12.630;2022-11-15T08:55:03;5.93;;;4.73;;
16228;SDS011;8222;51.462;12.630;2022-11-15T08:57:31;5.82;;;5.25;;
16228;SDS011;8222;51.462;12.630;2022-11-15T08:59:57;5.22;;;4.53;;
16228;SDS011;8222;51.462;12.630;2022-11-15T09:02:22;5.28;;;4.75;;
16228;SDS011;8222;51.462;12.630;2022-11-15T09:04:48;4.70;;;4.30;;
16228;SDS011;8222;51.462;12.630;2022-11-15T09:07:14;4.93;;;4.53;;
16228;SDS011;8222;51.462;12.630;2022-11-15T09:09:40;5.93;;;5.20;;
16228;SDS011;8222;51.462;12.630;2022-11-15T09:12:08;5.50;;;4.70;;
16228;SDS011;8222;51.462;12.630;2022-11-15T09:14:34;4.72;;;4.25;;
16228;SDS011;8222;51.462;12.630;2022-11-15T09:16:59;6.28;;;5.00;;
16228;SDS011;8222;51.462;12.630;2022-11-15T09:19:25;5.03;;;4.60;;
16228;SDS011;8222;51.462;12.630;2022-11-15T09:21:51;5.13;;;4.65;;
16228;SDS011;8222;51.462;12.630;2022-11-15T09:24:17;5.10;;;4.53;;
16228;SDS011;8222;51.462;12.630;2022-11-15T09:26:43;4.38;;;3.92;;
16228;SDS011;8222;51.462;12.630;2022-11-15T09:29:08;5.28;;;4.78;;
16228;SDS011;8222;51.462;12.630;2022-11-15T09:31:34;5.67;;;4.60;;
16228;SDS011;8222;51.462;12.630;2022-11-15T09:34:00;5.15;;;4.65;;
16228;SDS011;8222;51.462;12.630;2022-11-15T09:36:25;4.90;;;4.40;;
16228;SDS011;8222;51.462;12.630;2022-11-15T09:38:53;5.45;;;4.32;;
16228;SDS011;8222;51.462;12.630;2022-11-15T09:41:22;5.43;;;4.93;;
16228;SDS011;8222;51.462;12.630;2022-11-15T09:49:40;5.07;;;4.50;;
16228;SDS011;8222;51.462;12.630;2022-11-15T09:52:06;5.07;;;4.68;;
16228;SDS011;8222;51.462;12.630;2022-11-15T09:54:38;5.63;;;4.53;;
16228;SDS011;8222;51.462;12.630;2022-11-15T10:02:54;4.70;;;4.20;;
16228;SDS011;8222;51.462;12.630;2022-11-15T10:05:38;5.05;;;4.50;;
16228;SDS011;8222;51.462;12.630;2022-11-15T10:13:28;4.55;;;4.18;;
16228;SDS011;8222;51.462;12.630;2022-11-15T10:16:02;4.63;;;4.22;;
16228;SDS011;8222;51.462;12.630;2022-11-15T10:18:52;4.65;;;4.22;;
16228;SDS011;8222;51.462;12.630;2022-11-15T10:24:35;4.75;;;4.13;;
16228;SDS011;8222;51.462;12.630;2022-11-15T10:27:13;5.10;;;4.10;;
16228;SDS011;8222;51.462;12.630;2022-11-15T10:29:44;4.10;;;3.70;;
16228;SDS011;8222;51.462;12.630;2022-11-15T10:32:14;4.18;;;3.53;;
16228;SDS011;8222;51.462;12.630;2022-11-15T10:34:42;4.32;;;4.00;;
16228;SDS011;8222;51.462;12.630;2022-11-15T10:37:08;4.65;;;4.22;;
16228;SDS011;8222;51.462;12.630;2022-11-15T10:39:34;5.38;;;4.38;;
16228;SDS011;8222;51.462;12.630;2022-11-15T10:42:25;5.28;;;4.78;;
16228;SDS011;8222;51.462;12.630;2022-11-15T10:44:52;5.07;;;4.57;;
16228;SDS011;8222;51.462;12.630;2022-11-15T10:47:25;4.43;;;4.05;;
16228;SDS011;8222;51.462;12.630;2022-11-15T10:49:53;4.95;;;4.30;;
16228;SDS011;8222;51.462;12.630;2022-11-15T10:52:23;16.23;;;13.83;;
16228;SDS011;8222;51.462;12.630;2022-11-15T10:54:56;7.65;;;6.25;;
16228;SDS011;8222;51.462;12.630;2022-11-15T10:57:23;5.13;;;4.72;;
16228;SDS011;8222;51.462;12.630;2022-11-15T10:59:53;4.65;;;4.13;;
16228;SDS011;8222;51.462;12.630;2022-11-15T11:05:29;4.32;;;3.92;;
16228;SDS011;8222;51.462;12.630;2022-11-15T11:08:04;4.00;;;3.60;;
16228;SDS011;8222;51.462;12.630;2022-11-15T11:10:57;4.05;;;3.70;;
16228;SDS011;8222;51.462;12.630;2022-11-15T11:13:25;5.65;;;4.13;;
16228;SDS011;8222;51.462;12.630;2022-11-15T11:18:25;4.43;;;3.88;;
16228;SDS011;8222;51.462;12.630;2022-11-15T11:20:58;4.97;;;3.83;;
16228;SDS011;8222;51.462;12.630;2022-11-15T11:26:22;3.83;;;3.30;;
16228;SDS011;8222;51.462;12.630;2022-11-15T11:34:17;5.38;;;3.53;;
16228;SDS011;8222;51.462;12.630;2022-11-15T11:45:19;3.58;;;3.28;;
16228;SDS011;8222;51.462;12.630;2022-11-15T11:47:56;4.28;;;3.42;;
16228;SDS011;8222;51.462;12.630;2022-11-15T11:50:34;3.17;;;2.88;;
16228;SDS011;8222;51.462;12.630;2022-11-15T11:53:11;3.78;;;3.30;;
16228;SDS011;8222;51.462;12.630;2022-11-15T11:55:44;3.92;;;3.47;;
16228;SDS011;8222;51.462;12.630;2022-11-15T11:58:33;4.30;;;3.47;;
16228;SDS011;8222;51.462;12.630;2022-11-15T12:03:48;3.38;;;3.08;;
16228;SDS011;8222;51.462;12.630;2022-11-15T12:11:28;3.60;;;3.30;;
16228;SDS011;8222;51.462;12.630;2022-11-15T12:13:58;4.00;;;2.78;;
16228;SDS011;8222;51.462;12.630;2022-11-15T12:16:28;5.93;;;3.50;;
16228;SDS011;8222;51.462;12.630;2022-11-15T12:18:59;3.67;;;3.38;;
16228;SDS011;8222;51.462;12.630;2022-11-15T12:26:48;3.50;;;3.20;;
16228;SDS011;8222;51.462;12.630;2022-11-15T12:29:23;3.30;;;3.00;;
16228;SDS011;8222;51.462;12.630;2022-11-15T12:31:58;3.70;;;3.25;;
16228;SDS011;8222;51.462;12.630;2022-11-15T12:36:55;3.42;;;3.10;;
16228;SDS011;8222;51.462;12.630;2022-11-15T12:39:21;3.35;;;3.13;;
16228;SDS011;8222;51.462;12.630;2022-11-15T12:47:23;3.05;;;2.85;;
16228;SDS011;8222;51.462;12.630;2022-11-15T12:49:50;3.85;;;2.78;;
16228;SDS011;8222;51.462;12.630;2022-11-15T12:52:16;3.93;;;3.03;;
16228;SDS011;8222;51.462;12.630;2022-11-15T13:13:02;3.78;;;3.30;;
16228;SDS011;8222;51.462;12.630;2022-11-15T13:17:56;3.30;;;2.70;;
16228;SDS011;8222;51.462;12.630;2022-11-15T13:20:31;3.38;;;3.17;;
16228;SDS011;8222;51.462;12.630;2022-11-15T13:23:06;3.47;;;2.90;;
16228;SDS011;8222;51.462;12.630;2022-11-15T13:31:03;4.32;;;2.85;;
16228;SDS011;8222;51.462;12.630;2022-11-15T13:33:46;3.55;;;3.17;;
16228;SDS011;8222;51.462;12.630;2022-11-15T13:36:13;7.60;;;6.88;;
16228;SDS011;8222;51.462;12.630;2022-11-15T13:39:04;4.50;;;3.30;;
16228;SDS011;8222;51.462;12.630;2022-11-15T13:41:44;3.58;;;3.22;;
16228;SDS011;8222;51.462;12.630;2022-11-15T13:44:18;4.15;;;3.40;;
16228;SDS011;8222;51.462;12.630;2022-11-15T13:46:46;3.35;;;2.92;;
16228;SDS011;8222;51.462;12.630;2022-11-15T13:49:11;3.58;;;3.25;;
16228;SDS011;8222;51.462;12.630;2022-11-15T13:51:39;5.47;;;3.10;;
16228;SDS011;8222;51.462;12.630;2022-11-15T13:56:39;4.10;;;3.50;;
16228;SDS011;8222;51.462;12.630;2022-11-15T13:59:22;3.70;;;3.40;;
16228;SDS011;8222;51.462;12.630;2022-11-15T14:01:54;4.00;;;3.63;;
16228;SDS011;8222;51.462;12.630;2022-11-15T14:04:22;3.65;;;3.25;;
16228;SDS011;8222;51.462;12.630;2022-11-15T14:06:54;6.90;;;6.30;;
16228;SDS011;8222;51.462;12.630;2022-11-15T14:09:25;7.05;;;6.45;;
16228;SDS011;8222;51.462;12.630;2022-11-15T14:11:58;4.95;;;4.55;;
16228;SDS011;8222;51.462;12.630;2022-11-15T14:14:25;4.40;;;3.65;;
16228;SDS011;8222;51.462;12.630;2022-11-15T14:16:53;3.83;;;3.47;;
16228;SDS011;8222;51.462;12.630;2022-11-15T14:24:46;5.18;;;4.47;;
16228;SDS011;8222;51.462;12.630;2022-11-15T14:27:30;6.32;;;5.68;;
16228;SDS011;8222;51.462;12.630;2022-11-15T14:29:57;7.07;;;5.93;;
16228;SDS011;8222;51.462;12.630;2022-11-15T14:32:27;6.68;;;5.97;;
16228;SDS011;8222;51.462;12.630;2022-11-15T14:34:58;6.75;;;6.07;;
16228;SDS011;8222;51.462;12.630;2022-11-15T14:37:26;7.22;;;6.53;;
16228;SDS011;8222;51.462;12.630;2022-11-15T14:39:54;6.60;;;5.90;;
16228;SDS011;8222;51.462;12.630;2022-11-15T14:42:23;6.82;;;6.20;;
16228;SDS011;8222;51.462;12.630;2022-11-15T14:44:51;6.32;;;5.60;;
16228;SDS011;8222;51.462;12.630;2022-11-15T14:47:17;7.15;;;6.45;;
16228;SDS011;8222;51.462;12.630;2022-11-15T14:49:43;6.15;;;5.55;;
16228;SDS011;8222;51.462;12.630;2022-11-15T14:54:47;7.75;;;6.80;;
16228;SDS011;8222;51.462;12.630;2022-11-15T14:57:14;8.00;;;7.20;;
16228;SDS011;8222;51.462;12.630;2022-11-15T14:59:40;8.80;;;7.22;;
16228;SDS011;8222;51.462;12.630;2022-11-15T15:02:19;9.13;;;7.45;;
16228;SDS011;8222;51.462;12.630;2022-11-15T15:04:46;7.65;;;6.95;;
16228;SDS011;8222;51.462;12.630;2022-11-15T15:07:14;8.55;;;7.43;;
16228;SDS011;8222;51.462;12.630;2022-11-15T15:09:40;7.60;;;6.82;;
16228;SDS011;8222;51.462;12.630;2022-11-15T15:12:19;8.05;;;7.35;;
16228;SDS011;8222;51.462;12.630;2022-11-15T15:14:47;8.57;;;7.70;;
16228;SDS011;8222;51.462;12.630;2022-11-15T15:17:14;8.55;;;7.65;;
16228;SDS011;8222;51.462;12.630;2022-11-15T15:19:41;9.57;;;8.57;;
16228;SDS011;8222;51.462;12.630;2022-11-15T15:22:11;9.43;;;7.68;;
16228;SDS011;8222;51.462;12.630;2022-11-15T15:24:43;9.48;;;7.97;;
16228;SDS011;8222;51.462;12.630;2022-11-15T15:27:09;10.02;;;8.63;;
16228;SDS011;8222;51.462;12.630;2022-11-15T15:29:35;8.55;;;7.47;;
16228;SDS011;8222;51.462;12.630;2022-11-15T15:32:01;9.45;;;8.45;;
16228;SDS011;8222;51.462;12.630;2022-11-15T15:34:27;9.60;;;8.60;;
16228;SDS011;8222;51.462;12.630;2022-11-15T15:39:48;11.40;;;10.30;;
16228;SDS011;8222;51.462;12.630;2022-11-15T15:42:15;10.60;;;8.85;;
16228;SDS011;8222;51.462;12.630;2022-11-15T15:44:41;10.55;;;9.45;;
16228;SDS011;8222;51.462;12.630;2022-11-15T15:47:11;16.85;;;14.15;;
16228;SDS011;8222;51.462;12.630;2022-11-15T15:49:41;11.95;;;10.45;;
16228;SDS011;8222;51.462;12.630;2022-11-15T15:52:07;10.43;;;9.13;;
16228;SDS011;8222;51.462;12.630;2022-11-15T15:54:32;11.43;;;9.60;;
16228;SDS011;8222;51.462;12.630;2022-11-15T15:56:58;9.80;;;8.80;;
16228;SDS011;8222;51.462;12.630;2022-11-15T15:59:24;10.48;;;9.48;;
16228;SDS011;8222;51.462;12.630;2022-11-15T16:01:49;11.37;;;9.37;;
16228;SDS011;8222;51.462;12.630;2022-11-15T16:04:15;11.38;;;10.27;;
16228;SDS011;8222;51.462;12.630;2022-11-15T16:06:43;13.38;;;10.20;;
16228;SDS011;8222;51.462;12.630;2022-11-15T16:09:13;10.93;;;8.90;;
16228;SDS011;8222;51.462;12.630;2022-11-15T16:11:40;12.75;;;9.27;;
16228;SDS011;8222;51.462;12.630;2022-11-15T16:14:08;10.60;;;9.05;;
16228;SDS011;8222;51.462;12.630;2022-11-15T16:16:34;10.43;;;9.03;;
16228;SDS011;8222;51.462;12.630;2022-11-15T16:19:00;10.90;;;9.32;;
16228;SDS011;8222;51.462;12.630;2022-11-15T16:21:30;11.88;;;10.13;;
16228;SDS011;8222;51.462;12.630;2022-11-15T16:23:56;11.40;;;9.50;;
16228;SDS011;8222;51.462;12.630;2022-11-15T16:26:22;11.73;;;9.70;;
16228;SDS011;8222;51.462;12.630;2022-11-15T16:28:50;11.45;;;10.02;;
16228;SDS011;8222;51.462;12.630;2022-11-15T16:31:16;12.52;;;11.18;;
16228;SDS011;8222;51.462;12.630;2022-11-15T16:33:47;11.48;;;9.93;;
16228;SDS011;8222;51.462;12.630;2022-11-15T16:36:22;11.90;;;10.70;;
16228;SDS011;8222;51.462;12.630;2022-11-15T16:38:50;12.85;;;11.00;;
16228;SDS011;8222;51.462;12.630;2022-11-15T16:41:18;16.03;;;11.53;;
16228;SDS011;8222;51.462;12.630;2022-11-15T16:43:49;11.07;;;9.77;;
16228;SDS011;8222;51.462;12.630;2022-11-15T16:46:17;13.25;;;11.25;;
16228;SDS011;8222;51.462;12.630;2022-11-15T16:48:46;12.43;;;11.07;;
16228;SDS011;8222;51.462;12.630;2022-11-15T16:51:13;13.40;;;11.23;;
16228;SDS011;8222;51.462;12.630;2022-11-15T16:53:41;11.00;;;9.60;;
16228;SDS011;8222;51.462;12.630;2022-11-15T16:58:53;15.70;;;12.02;;
16228;SDS011;8222;51.462;12.630;2022-11-15T17:01:26;14.40;;;12.90;;
16228;SDS011;8222;51.462;12.630;2022-11-15T17:03:53;13.55;;;12.02;;
16228;SDS011;8222;51.462;12.630;2022-11-15T17:06:19;13.48;;;11.48;;
16228;SDS011;8222;51.462;12.630;2022-11-15T17:08:46;13.10;;;11.05;;
16228;SDS011;8222;51.462;12.630;2022-11-15T17:11:16;14.23;;;12.10;;